sensor_id;sensor_type;location;lat;lon;timestamp;temperature;humidity
3648;DHT22;1840;48.892;15.312;2022-07-22T00:00:55;18.40;95.80
3648;DHT22;1840;48.892;15.312;2022-07-22T00:03:23;18.30;96.10
3648;DHT22;1840;48.892;15.312;2022-07-22T00:05:51;18.30;95.70
3648;DHT22;1840;48.892;15.312;2022-07-22T00:08:20;18.30;95.70
3648;DHT22;1840;48.892;15.312;2022-07-22T00:10:48;18.30;95.60
3648;DHT22;1840;48.892;15.312;2022-07-22T00:13:16;18.20;95.40
3648;DHT22;1840;48.892;15.312;2022-07-22T00:15:44;18.10;95.50
3648;DHT22;1840;48.892;15.312;2022-07-22T00:18:13;18.10;95.50
3648;DHT22;1840;48.892;15.312;2022-07-22T00:20:41;18.10;95.70
3648;DHT22;1840;48.892;15.312;2022-07-22T00:23:09;18.10;95.70
3648;DHT22;1840;48.892;15.312;2022-07-22T00:25:38;18.20;95.80
3648;DHT22;1840;48.892;15.312;2022-07-22T00:28:07;18.10;95.90
3648;DHT22;1840;48.892;15.312;2022-07-22T00:30:35;18.00;96.00
3648;DHT22;1840;48.892;15.312;2022-07-22T00:33:03;17.90;96.20
3648;DHT22;1840;48.892;15.312;2022-07-22T00:35:31;17.80;96.20
3648;DHT22;1840;48.892;15.312;2022-07-22T00:38:05;17.70;96.30
3648;DHT22;1840;48.892;15.312;2022-07-22T00:40:33;17.60;96.50
3648;DHT22;1840;48.892;15.312;2022-07-22T00:43:02;17.50;96.50
3648;DHT22;1840;48.892;15.312;2022-07-22T00:45:31;17.60;96.60
3648;DHT22;1840;48.892;15.312;2022-07-22T00:47:59;17.60;96.70
3648;DHT22;1840;48.892;15.312;2022-07-22T00:50:27;17.60;96.60
3648;DHT22;1840;48.892;15.312;2022-07-22T00:52:55;17.60;96.60
3648;DHT22;1840;48.892;15.312;2022-07-22T00:55:24;17.70;96.60
3648;DHT22;1840;48.892;15.312;2022-07-22T00:57:52;17.60;96.80
3648;DHT22;1840;48.892;15.312;2022-07-22T01:00:23;17.50;96.90
3648;DHT22;1840;48.892;15.312;2022-07-22T01:02:51;17.60;97.10
3648;DHT22;1840;48.892;15.312;2022-07-22T01:05:19;17.60;97.20
3648;DHT22;1840;48.892;15.312;2022-07-22T01:07:47;17.50;97.20
3648;DHT22;1840;48.892;15.312;2022-07-22T01:10:15;17.50;97.30
3648;DHT22;1840;48.892;15.312;2022-07-22T01:12:43;17.50;97.20
3648;DHT22;1840;48.892;15.312;2022-07-22T01:15:11;17.40;97.30
3648;DHT22;1840;48.892;15.312;2022-07-22T01:17:41;17.40;97.20
3648;DHT22;1840;48.892;15.312;2022-07-22T01:20:11;17.40;97.30
3648;DHT22;1840;48.892;15.312;2022-07-22T01:22:39;17.40;97.30
3648;DHT22;1840;48.892;15.312;2022-07-22T01:25:07;17.40;97.50
3648;DHT22;1840;48.892;15.312;2022-07-22T01:27:36;17.40;97.50
3648;DHT22;1840;48.892;15.312;2022-07-22T01:30:05;17.40;97.50
3648;DHT22;1840;48.892;15.312;2022-07-22T01:32:33;17.40;97.50
3648;DHT22;1840;48.892;15.312;2022-07-22T01:35:01;17.30;97.60
3648;DHT22;1840;48.892;15.312;2022-07-22T01:37:32;17.30;97.80
3648;DHT22;1840;48.892;15.312;2022-07-22T01:40:00;17.20;97.70
3648;DHT22;1840;48.892;15.312;2022-07-22T01:42:29;17.30;97.60
3648;DHT22;1840;48.892;15.312;2022-07-22T01:44:57;17.30;97.30
3648;DHT22;1840;48.892;15.312;2022-07-22T01:47:25;17.20;97.40
3648;DHT22;1840;48.892;15.312;2022-07-22T01:49:53;17.20;97.50
3648;DHT22;1840;48.892;15.312;2022-07-22T01:52:21;17.20;97.60
3648;DHT22;1840;48.892;15.312;2022-07-22T01:54:50;17.30;97.60
3648;DHT22;1840;48.892;15.312;2022-07-22T01:57:18;17.30;97.60
3648;DHT22;1840;48.892;15.312;2022-07-22T01:59:46;17.30;97.70
3648;DHT22;1840;48.892;15.312;2022-07-22T02:02:14;17.20;97.70
3648;DHT22;1840;48.892;15.312;2022-07-22T02:04:42;17.30;97.80
3648;DHT22;1840;48.892;15.312;2022-07-22T02:07:11;17.30;97.80
3648;DHT22;1840;48.892;15.312;2022-07-22T02:09:39;17.10;97.40
3648;DHT22;1840;48.892;15.312;2022-07-22T02:12:08;17.00;97.50
3648;DHT22;1840;48.892;15.312;2022-07-22T02:14:36;17.00;97.60
3648;DHT22;1840;48.892;15.312;2022-07-22T02:17:05;17.00;97.60
3648;DHT22;1840;48.892;15.312;2022-07-22T02:19:33;17.10;97.60
3648;DHT22;1840;48.892;15.312;2022-07-22T02:22:01;16.90;97.50
3648;DHT22;1840;48.892;15.312;2022-07-22T02:24:29;16.90;97.80
3648;DHT22;1840;48.892;15.312;2022-07-22T02:26:57;16.90;97.80
3648;DHT22;1840;48.892;15.312;2022-07-22T02:29:27;17.00;97.70
3648;DHT22;1840;48.892;15.312;2022-07-22T02:32:03;17.00;97.70
3648;DHT22;1840;48.892;15.312;2022-07-22T02:34:32;17.00;97.80
3648;DHT22;1840;48.892;15.312;2022-07-22T02:37:01;16.90;97.60
3648;DHT22;1840;48.892;15.312;2022-07-22T02:39:29;16.80;97.60
3648;DHT22;1840;48.892;15.312;2022-07-22T02:41:57;16.60;97.90
3648;DHT22;1840;48.892;15.312;2022-07-22T02:44:27;16.70;97.70
3648;DHT22;1840;48.892;15.312;2022-07-22T02:46:55;16.60;97.80
3648;DHT22;1840;48.892;15.312;2022-07-22T02:49:23;16.70;97.80
3648;DHT22;1840;48.892;15.312;2022-07-22T02:51:51;16.70;97.90
3648;DHT22;1840;48.892;15.312;2022-07-22T02:54:20;16.60;97.80
3648;DHT22;1840;48.892;15.312;2022-07-22T02:56:48;16.60;97.90
3648;DHT22;1840;48.892;15.312;2022-07-22T02:59:16;16.50;97.70
3648;DHT22;1840;48.892;15.312;2022-07-22T03:01:45;16.50;97.70
3648;DHT22;1840;48.892;15.312;2022-07-22T03:04:13;16.40;97.80
3648;DHT22;1840;48.892;15.312;2022-07-22T03:06:41;16.30;98.10
3648;DHT22;1840;48.892;15.312;2022-07-22T03:09:09;16.30;98.40
3648;DHT22;1840;48.892;15.312;2022-07-22T03:11:37;16.40;98.20
3648;DHT22;1840;48.892;15.312;2022-07-22T03:14:05;16.40;98.20
3648;DHT22;1840;48.892;15.312;2022-07-22T03:16:33;16.40;98.20
3648;DHT22;1840;48.892;15.312;2022-07-22T03:19:03;16.40;98.10
3648;DHT22;1840;48.892;15.312;2022-07-22T03:21:31;16.40;98.10
3648;DHT22;1840;48.892;15.312;2022-07-22T03:24:00;16.40;98.00
3648;DHT22;1840;48.892;15.312;2022-07-22T03:26:28;16.30;97.90
3648;DHT22;1840;48.892;15.312;2022-07-22T03:28:56;16.20;97.90
3648;DHT22;1840;48.892;15.312;2022-07-22T03:31:25;16.20;97.80
3648;DHT22;1840;48.892;15.312;2022-07-22T03:33:53;16.10;98.10
3648;DHT22;1840;48.892;15.312;2022-07-22T03:36:23;16.10;97.90
3648;DHT22;1840;48.892;15.312;2022-07-22T03:38:51;16.10;98.10
3648;DHT22;1840;48.892;15.312;2022-07-22T03:41:20;16.10;98.10
3648;DHT22;1840;48.892;15.312;2022-07-22T03:43:49;16.10;98.00
3648;DHT22;1840;48.892;15.312;2022-07-22T03:46:17;16.10;98.40
3648;DHT22;1840;48.892;15.312;2022-07-22T03:48:45;16.20;98.30
3648;DHT22;1840;48.892;15.312;2022-07-22T03:51:13;16.20;98.50
3648;DHT22;1840;48.892;15.312;2022-07-22T03:53:43;16.10;98.50
3648;DHT22;1840;48.892;15.312;2022-07-22T03:56:11;16.20;98.30
3648;DHT22;1840;48.892;15.312;2022-07-22T03:58:39;16.20;98.40
3648;DHT22;1840;48.892;15.312;2022-07-22T04:01:07;16.10;98.80
3648;DHT22;1840;48.892;15.312;2022-07-22T04:03:35;16.10;98.80
3648;DHT22;1840;48.892;15.312;2022-07-22T04:06:04;16.20;98.90
3648;DHT22;1840;48.892;15.312;2022-07-22T04:08:33;16.20;98.60
3648;DHT22;1840;48.892;15.312;2022-07-22T04:11:03;16.10;98.60
3648;DHT22;1840;48.892;15.312;2022-07-22T04:13:31;16.10;98.80
3648;DHT22;1840;48.892;15.312;2022-07-22T04:15:59;16.10;98.90
3648;DHT22;1840;48.892;15.312;2022-07-22T04:18:29;16.20;98.80
3648;DHT22;1840;48.892;15.312;2022-07-22T04:20:57;16.20;98.90
3648;DHT22;1840;48.892;15.312;2022-07-22T04:23:26;16.20;99.20
3648;DHT22;1840;48.892;15.312;2022-07-22T04:25:54;16.20;98.70
3648;DHT22;1840;48.892;15.312;2022-07-22T04:28:23;16.10;99.40
3648;DHT22;1840;48.892;15.312;2022-07-22T04:30:51;16.10;99.00
3648;DHT22;1840;48.892;15.312;2022-07-22T04:33:19;16.20;99.10
3648;DHT22;1840;48.892;15.312;2022-07-22T04:35:47;16.40;99.10
3648;DHT22;1840;48.892;15.312;2022-07-22T04:38:16;16.50;99.10
3648;DHT22;1840;48.892;15.312;2022-07-22T04:40:44;16.50;99.10
3648;DHT22;1840;48.892;15.312;2022-07-22T04:43:20;16.70;99.10
3648;DHT22;1840;48.892;15.312;2022-07-22T04:45:50;16.70;99.20
3648;DHT22;1840;48.892;15.312;2022-07-22T04:48:18;16.70;99.20
3648;DHT22;1840;48.892;15.312;2022-07-22T04:50:46;16.80;99.30
3648;DHT22;1840;48.892;15.312;2022-07-22T04:53:14;16.80;99.30
3648;DHT22;1840;48.892;15.312;2022-07-22T04:55:44;16.80;99.40
3648;DHT22;1840;48.892;15.312;2022-07-22T04:58:12;17.00;99.40
3648;DHT22;1840;48.892;15.312;2022-07-22T05:00:43;17.00;99.40
3648;DHT22;1840;48.892;15.312;2022-07-22T05:03:13;17.20;99.90
3648;DHT22;1840;48.892;15.312;2022-07-22T05:05:41;17.20;99.60
3648;DHT22;1840;48.892;15.312;2022-07-22T05:08:09;17.40;99.70
3648;DHT22;1840;48.892;15.312;2022-07-22T05:10:37;17.40;99.60
3648;DHT22;1840;48.892;15.312;2022-07-22T05:13:05;17.50;99.70
3648;DHT22;1840;48.892;15.312;2022-07-22T05:15:33;17.60;99.80
3648;DHT22;1840;48.892;15.312;2022-07-22T05:18:01;17.70;99.80
3648;DHT22;1840;48.892;15.312;2022-07-22T05:20:30;17.70;99.80
3648;DHT22;1840;48.892;15.312;2022-07-22T05:22:58;17.90;99.90
3648;DHT22;1840;48.892;15.312;2022-07-22T05:25:27;18.10;99.80
3648;DHT22;1840;48.892;15.312;2022-07-22T05:27:55;18.20;99.70
3648;DHT22;1840;48.892;15.312;2022-07-22T05:30:24;18.30;99.90
3648;DHT22;1840;48.892;15.312;2022-07-22T05:32:53;18.50;99.90
3648;DHT22;1840;48.892;15.312;2022-07-22T05:35:21;18.70;99.70
3648;DHT22;1840;48.892;15.312;2022-07-22T05:37:50;18.70;99.50
3648;DHT22;1840;48.892;15.312;2022-07-22T05:40:18;18.80;99.40
3648;DHT22;1840;48.892;15.312;2022-07-22T05:42:46;19.00;99.40
3648;DHT22;1840;48.892;15.312;2022-07-22T05:45:14;19.10;99.00
3648;DHT22;1840;48.892;15.312;2022-07-22T05:47:43;19.40;99.30
3648;DHT22;1840;48.892;15.312;2022-07-22T05:50:11;19.50;98.70
3648;DHT22;1840;48.892;15.312;2022-07-22T05:52:39;19.80;98.60
3648;DHT22;1840;48.892;15.312;2022-07-22T05:55:09;20.00;98.10
3648;DHT22;1840;48.892;15.312;2022-07-22T05:57:37;20.00;97.70
3648;DHT22;1840;48.892;15.312;2022-07-22T06:00:06;20.10;97.30
3648;DHT22;1840;48.892;15.312;2022-07-22T06:02:34;20.20;97.30
3648;DHT22;1840;48.892;15.312;2022-07-22T06:05:03;20.40;97.40
3648;DHT22;1840;48.892;15.312;2022-07-22T06:07:31;20.50;97.10
3648;DHT22;1840;48.892;15.312;2022-07-22T06:09:59;20.50;96.50
3648;DHT22;1840;48.892;15.312;2022-07-22T06:12:29;20.60;96.80
3648;DHT22;1840;48.892;15.312;2022-07-22T06:14:57;20.90;96.30
3648;DHT22;1840;48.892;15.312;2022-07-22T06:17:26;20.90;96.00
3648;DHT22;1840;48.892;15.312;2022-07-22T06:19:54;20.80;95.70
3648;DHT22;1840;48.892;15.312;2022-07-22T06:22:22;20.90;95.80
3648;DHT22;1840;48.892;15.312;2022-07-22T06:24:50;21.00;95.60
3648;DHT22;1840;48.892;15.312;2022-07-22T06:27:18;21.10;95.40
3648;DHT22;1840;48.892;15.312;2022-07-22T06:29:47;21.40;95.40
3648;DHT22;1840;48.892;15.312;2022-07-22T06:32:16;21.80;94.80
3648;DHT22;1840;48.892;15.312;2022-07-22T06:34:47;21.90;94.20
3648;DHT22;1840;48.892;15.312;2022-07-22T06:37:15;22.00;94.80
3648;DHT22;1840;48.892;15.312;2022-07-22T06:39:43;22.10;94.00
3648;DHT22;1840;48.892;15.312;2022-07-22T06:42:13;22.20;94.10
3648;DHT22;1840;48.892;15.312;2022-07-22T06:44:42;22.50;93.30
3648;DHT22;1840;48.892;15.312;2022-07-22T06:47:11;22.50;94.10
3648;DHT22;1840;48.892;15.312;2022-07-22T06:49:39;22.60;93.40
3648;DHT22;1840;48.892;15.312;2022-07-22T06:52:10;22.90;93.30
3648;DHT22;1840;48.892;15.312;2022-07-22T06:54:38;23.00;92.70
3648;DHT22;1840;48.892;15.312;2022-07-22T06:57:06;23.20;92.20
3648;DHT22;1840;48.892;15.312;2022-07-22T06:59:34;23.20;92.20
3648;DHT22;1840;48.892;15.312;2022-07-22T07:02:02;23.40;92.20
3648;DHT22;1840;48.892;15.312;2022-07-22T07:04:38;23.70;92.00
3648;DHT22;1840;48.892;15.312;2022-07-22T07:07:06;23.70;91.50
3648;DHT22;1840;48.892;15.312;2022-07-22T07:09:39;23.70;91.80
3648;DHT22;1840;48.892;15.312;2022-07-22T07:12:08;24.10;91.60
3648;DHT22;1840;48.892;15.312;2022-07-22T07:14:36;24.20;91.10
3648;DHT22;1840;48.892;15.312;2022-07-22T07:17:15;24.10;90.90
3648;DHT22;1840;48.892;15.312;2022-07-22T07:19:45;24.10;91.10
3648;DHT22;1840;48.892;15.312;2022-07-22T07:22:13;24.00;90.80
3648;DHT22;1840;48.892;15.312;2022-07-22T07:24:41;23.70;91.40
3648;DHT22;1840;48.892;15.312;2022-07-22T07:27:11;23.80;91.30
3648;DHT22;1840;48.892;15.312;2022-07-22T07:29:41;24.00;90.80
3648;DHT22;1840;48.892;15.312;2022-07-22T07:32:09;24.00;90.90
3648;DHT22;1840;48.892;15.312;2022-07-22T07:34:38;23.90;90.70
3648;DHT22;1840;48.892;15.312;2022-07-22T07:37:08;24.00;90.40
3648;DHT22;1840;48.892;15.312;2022-07-22T07:39:38;24.10;90.70
3648;DHT22;1840;48.892;15.312;2022-07-22T07:42:07;24.30;90.00
3648;DHT22;1840;48.892;15.312;2022-07-22T07:44:35;24.50;90.00
3648;DHT22;1840;48.892;15.312;2022-07-22T07:47:04;24.50;90.10
3648;DHT22;1840;48.892;15.312;2022-07-22T07:49:32;24.50;89.40
3648;DHT22;1840;48.892;15.312;2022-07-22T07:52:01;24.40;89.30
3648;DHT22;1840;48.892;15.312;2022-07-22T07:54:31;24.40;88.50
3648;DHT22;1840;48.892;15.312;2022-07-22T07:57:19;24.50;88.50
3648;DHT22;1840;48.892;15.312;2022-07-22T07:59:47;24.40;87.40
3648;DHT22;1840;48.892;15.312;2022-07-22T08:02:15;24.50;88.50
3648;DHT22;1840;48.892;15.312;2022-07-22T08:04:44;24.50;89.10
3648;DHT22;1840;48.892;15.312;2022-07-22T08:07:18;24.60;87.10
3648;DHT22;1840;48.892;15.312;2022-07-22T08:09:48;24.80;86.80
3648;DHT22;1840;48.892;15.312;2022-07-22T08:12:31;24.70;84.80
3648;DHT22;1840;48.892;15.312;2022-07-22T08:14:59;25.10;84.90
3648;DHT22;1840;48.892;15.312;2022-07-22T08:17:28;25.30;84.70
3648;DHT22;1840;48.892;15.312;2022-07-22T08:19:58;25.40;82.50
3648;DHT22;1840;48.892;15.312;2022-07-22T08:22:26;25.40;82.50
3648;DHT22;1840;48.892;15.312;2022-07-22T08:24:56;25.60;82.80
3648;DHT22;1840;48.892;15.312;2022-07-22T08:27:24;25.40;82.50
3648;DHT22;1840;48.892;15.312;2022-07-22T08:29:55;25.30;82.00
3648;DHT22;1840;48.892;15.312;2022-07-22T08:32:23;25.40;80.80
3648;DHT22;1840;48.892;15.312;2022-07-22T08:34:51;25.40;80.70
3648;DHT22;1840;48.892;15.312;2022-07-22T08:37:19;25.20;81.20
3648;DHT22;1840;48.892;15.312;2022-07-22T08:39:47;25.10;80.00
3648;DHT22;1840;48.892;15.312;2022-07-22T08:42:17;24.90;77.80
3648;DHT22;1840;48.892;15.312;2022-07-22T08:44:45;25.00;78.00
3648;DHT22;1840;48.892;15.312;2022-07-22T08:47:15;24.80;74.90
3648;DHT22;1840;48.892;15.312;2022-07-22T08:50:03;24.80;77.20
3648;DHT22;1840;48.892;15.312;2022-07-22T08:52:34;25.00;78.30
3648;DHT22;1840;48.892;15.312;2022-07-22T08:55:03;25.00;76.90
3648;DHT22;1840;48.892;15.312;2022-07-22T08:57:33;24.90;76.70
3648;DHT22;1840;48.892;15.312;2022-07-22T09:00:09;25.00;77.90
3648;DHT22;1840;48.892;15.312;2022-07-22T09:02:40;25.00;78.20
3648;DHT22;1840;48.892;15.312;2022-07-22T09:05:10;25.20;76.40
3648;DHT22;1840;48.892;15.312;2022-07-22T09:08:00;25.20;75.60
3648;DHT22;1840;48.892;15.312;2022-07-22T09:10:31;25.20;74.60
3648;DHT22;1840;48.892;15.312;2022-07-22T09:13:04;25.20;75.40
3648;DHT22;1840;48.892;15.312;2022-07-22T09:15:33;25.30;71.50
3648;DHT22;1840;48.892;15.312;2022-07-22T09:18:04;25.50;70.30
3648;DHT22;1840;48.892;15.312;2022-07-22T09:20:34;25.70;65.90
3648;DHT22;1840;48.892;15.312;2022-07-22T09:23:09;25.90;67.00
3648;DHT22;1840;48.892;15.312;2022-07-22T09:25:39;26.00;65.30
3648;DHT22;1840;48.892;15.312;2022-07-22T09:28:15;26.20;69.30
3648;DHT22;1840;48.892;15.312;2022-07-22T09:30:49;26.30;68.60
3648;DHT22;1840;48.892;15.312;2022-07-22T09:33:21;26.40;67.90
3648;DHT22;1840;48.892;15.312;2022-07-22T09:35:50;26.60;68.00
3648;DHT22;1840;48.892;15.312;2022-07-22T09:38:20;26.60;65.80
3648;DHT22;1840;48.892;15.312;2022-07-22T09:40:54;26.40;69.50
3648;DHT22;1840;48.892;15.312;2022-07-22T09:43:24;26.30;66.60
3648;DHT22;1840;48.892;15.312;2022-07-22T09:45:56;26.30;67.40
3648;DHT22;1840;48.892;15.312;2022-07-22T09:48:25;26.40;67.30
3648;DHT22;1840;48.892;15.312;2022-07-22T09:50:55;26.60;69.60
3648;DHT22;1840;48.892;15.312;2022-07-22T09:53:26;26.80;67.60
3648;DHT22;1840;48.892;15.312;2022-07-22T09:55:56;26.80;67.90
3648;DHT22;1840;48.892;15.312;2022-07-22T09:58:26;26.50;67.70
3648;DHT22;1840;48.892;15.312;2022-07-22T10:00:58;26.60;68.20
3648;DHT22;1840;48.892;15.312;2022-07-22T10:03:27;26.60;70.00
3648;DHT22;1840;48.892;15.312;2022-07-22T10:05:57;26.80;66.90
3648;DHT22;1840;48.892;15.312;2022-07-22T10:08:26;27.00;67.30
3648;DHT22;1840;48.892;15.312;2022-07-22T10:10:59;27.10;67.00
3648;DHT22;1840;48.892;15.312;2022-07-22T10:13:29;27.10;67.50
3648;DHT22;1840;48.892;15.312;2022-07-22T10:15:58;27.00;66.60
3648;DHT22;1840;48.892;15.312;2022-07-22T10:18:28;26.80;68.80
3648;DHT22;1840;48.892;15.312;2022-07-22T10:21:01;26.90;67.60
3648;DHT22;1840;48.892;15.312;2022-07-22T10:23:30;26.80;66.30
3648;DHT22;1840;48.892;15.312;2022-07-22T10:25:59;26.70;66.80
3648;DHT22;1840;48.892;15.312;2022-07-22T10:28:30;26.50;69.90
3648;DHT22;1840;48.892;15.312;2022-07-22T10:31:19;26.60;67.70
3648;DHT22;1840;48.892;15.312;2022-07-22T10:33:50;26.60;68.70
3648;DHT22;1840;48.892;15.312;2022-07-22T10:36:32;26.60;69.60
3648;DHT22;1840;48.892;15.312;2022-07-22T10:39:05;26.60;68.20
3648;DHT22;1840;48.892;15.312;2022-07-22T10:41:35;26.80;70.00
3648;DHT22;1840;48.892;15.312;2022-07-22T10:44:05;27.10;68.80
3648;DHT22;1840;48.892;15.312;2022-07-22T10:46:48;27.30;65.60
3648;DHT22;1840;48.892;15.312;2022-07-22T10:49:18;27.60;65.20
3648;DHT22;1840;48.892;15.312;2022-07-22T10:52:11;27.90;65.60
3648;DHT22;1840;48.892;15.312;2022-07-22T10:55:21;27.90;68.00
3648;DHT22;1840;48.892;15.312;2022-07-22T10:57:50;27.90;66.70
3648;DHT22;1840;48.892;15.312;2022-07-22T11:00:20;27.80;66.50
3648;DHT22;1840;48.892;15.312;2022-07-22T11:02:48;28.00;62.20
3648;DHT22;1840;48.892;15.312;2022-07-22T11:05:24;28.10;64.70
3648;DHT22;1840;48.892;15.312;2022-07-22T11:07:53;28.30;62.10
3648;DHT22;1840;48.892;15.312;2022-07-22T11:10:21;28.10;61.10
3648;DHT22;1840;48.892;15.312;2022-07-22T11:12:50;28.10;62.70
3648;DHT22;1840;48.892;15.312;2022-07-22T11:15:25;28.30;63.10
3648;DHT22;1840;48.892;15.312;2022-07-22T11:17:56;28.40;64.00
3648;DHT22;1840;48.892;15.312;2022-07-22T11:20:25;28.30;65.50
3648;DHT22;1840;48.892;15.312;2022-07-22T11:22:54;27.60;64.80
3648;DHT22;1840;48.892;15.312;2022-07-22T11:25:25;27.80;66.80
3648;DHT22;1840;48.892;15.312;2022-07-22T11:27:54;27.90;66.50
3648;DHT22;1840;48.892;15.312;2022-07-22T11:30:26;28.10;65.10
3648;DHT22;1840;48.892;15.312;2022-07-22T11:32:54;28.20;63.40
3648;DHT22;1840;48.892;15.312;2022-07-22T11:35:23;28.30;64.10
3648;DHT22;1840;48.892;15.312;2022-07-22T11:37:55;28.30;66.10
3648;DHT22;1840;48.892;15.312;2022-07-22T11:40:24;28.60;63.20
3648;DHT22;1840;48.892;15.312;2022-07-22T11:43:02;28.60;65.20
3648;DHT22;1840;48.892;15.312;2022-07-22T11:45:32;28.60;62.80
3648;DHT22;1840;48.892;15.312;2022-07-22T11:48:08;28.70;62.50
3648;DHT22;1840;48.892;15.312;2022-07-22T11:50:36;28.50;63.20
3648;DHT22;1840;48.892;15.312;2022-07-22T11:53:04;28.40;63.30
3648;DHT22;1840;48.892;15.312;2022-07-22T11:55:34;28.50;64.10
3648;DHT22;1840;48.892;15.312;2022-07-22T11:58:02;28.60;68.40
3648;DHT22;1840;48.892;15.312;2022-07-22T12:00:32;28.60;66.90
3648;DHT22;1840;48.892;15.312;2022-07-22T12:03:00;28.50;66.40
3648;DHT22;1840;48.892;15.312;2022-07-22T12:05:29;28.50;67.40
3648;DHT22;1840;48.892;15.312;2022-07-22T12:07:59;28.50;63.10
3648;DHT22;1840;48.892;15.312;2022-07-22T12:10:28;28.70;63.30
3648;DHT22;1840;48.892;15.312;2022-07-22T12:12:56;28.60;65.40
3648;DHT22;1840;48.892;15.312;2022-07-22T12:15:25;28.50;64.70
3648;DHT22;1840;48.892;15.312;2022-07-22T12:18:17;28.70;62.40
3648;DHT22;1840;48.892;15.312;2022-07-22T12:20:47;28.90;62.70
3648;DHT22;1840;48.892;15.312;2022-07-22T12:23:21;28.90;64.50
3648;DHT22;1840;48.892;15.312;2022-07-22T12:25:55;29.10;62.50
3648;DHT22;1840;48.892;15.312;2022-07-22T12:28:23;29.30;64.40
3648;DHT22;1840;48.892;15.312;2022-07-22T12:30:54;29.00;64.00
3648;DHT22;1840;48.892;15.312;2022-07-22T12:33:23;28.60;63.30
3648;DHT22;1840;48.892;15.312;2022-07-22T12:36:00;28.70;64.40
3648;DHT22;1840;48.892;15.312;2022-07-22T12:38:28;28.30;63.60
3648;DHT22;1840;48.892;15.312;2022-07-22T12:41:24;28.50;62.60
3648;DHT22;1840;48.892;15.312;2022-07-22T12:43:52;28.70;66.10
3648;DHT22;1840;48.892;15.312;2022-07-22T12:46:21;28.50;65.90
3648;DHT22;1840;48.892;15.312;2022-07-22T12:48:54;28.80;65.20
3648;DHT22;1840;48.892;15.312;2022-07-22T12:51:27;29.20;61.80
3648;DHT22;1840;48.892;15.312;2022-07-22T12:53:55;29.30;61.90
3648;DHT22;1840;48.892;15.312;2022-07-22T12:56:24;29.50;63.70
3648;DHT22;1840;48.892;15.312;2022-07-22T12:58:59;29.60;61.30
3648;DHT22;1840;48.892;15.312;2022-07-22T13:01:27;29.80;62.40
3648;DHT22;1840;48.892;15.312;2022-07-22T13:03:56;30.00;62.10
3648;DHT22;1840;48.892;15.312;2022-07-22T13:06:25;30.00;62.10
3648;DHT22;1840;48.892;15.312;2022-07-22T13:08:54;29.80;62.70
3648;DHT22;1840;48.892;15.312;2022-07-22T13:11:22;29.80;64.60
3648;DHT22;1840;48.892;15.312;2022-07-22T13:13:50;30.00;63.60
3648;DHT22;1840;48.892;15.312;2022-07-22T13:16:18;30.10;60.90
3648;DHT22;1840;48.892;15.312;2022-07-22T13:18:46;30.00;59.80
3648;DHT22;1840;48.892;15.312;2022-07-22T13:21:15;30.00;63.70
3648;DHT22;1840;48.892;15.312;2022-07-22T13:23:44;29.60;62.10
3648;DHT22;1840;48.892;15.312;2022-07-22T13:26:12;29.40;60.40
3648;DHT22;1840;48.892;15.312;2022-07-22T13:28:40;29.20;62.30
3648;DHT22;1840;48.892;15.312;2022-07-22T13:31:09;29.20;63.50
3648;DHT22;1840;48.892;15.312;2022-07-22T13:33:37;29.20;62.60
3648;DHT22;1840;48.892;15.312;2022-07-22T13:36:06;29.50;63.20
3648;DHT22;1840;48.892;15.312;2022-07-22T13:38:35;29.70;60.70
3648;DHT22;1840;48.892;15.312;2022-07-22T13:41:04;29.70;62.10
3648;DHT22;1840;48.892;15.312;2022-07-22T13:43:43;29.80;59.80
3648;DHT22;1840;48.892;15.312;2022-07-22T13:46:12;29.70;59.80
3648;DHT22;1840;48.892;15.312;2022-07-22T13:48:40;29.60;60.50
3648;DHT22;1840;48.892;15.312;2022-07-22T13:51:09;29.70;61.70
3648;DHT22;1840;48.892;15.312;2022-07-22T13:53:38;29.80;59.70
3648;DHT22;1840;48.892;15.312;2022-07-22T13:56:08;30.00;61.00
3648;DHT22;1840;48.892;15.312;2022-07-22T13:58:37;30.10;62.70
3648;DHT22;1840;48.892;15.312;2022-07-22T14:01:07;30.30;62.50
3648;DHT22;1840;48.892;15.312;2022-07-22T14:03:36;30.40;59.80
3648;DHT22;1840;48.892;15.312;2022-07-22T14:06:05;30.40;58.90
3648;DHT22;1840;48.892;15.312;2022-07-22T14:08:37;30.40;59.80
3648;DHT22;1840;48.892;15.312;2022-07-22T14:11:07;30.40;58.80
3648;DHT22;1840;48.892;15.312;2022-07-22T14:13:35;30.30;58.80
3648;DHT22;1840;48.892;15.312;2022-07-22T14:16:06;30.40;62.40
3648;DHT22;1840;48.892;15.312;2022-07-22T14:18:49;30.60;60.10
3648;DHT22;1840;48.892;15.312;2022-07-22T14:21:17;30.60;58.60
3648;DHT22;1840;48.892;15.312;2022-07-22T14:23:46;30.30;58.60
3648;DHT22;1840;48.892;15.312;2022-07-22T14:26:15;30.00;58.80
3648;DHT22;1840;48.892;15.312;2022-07-22T14:28:43;29.70;58.70
3648;DHT22;1840;48.892;15.312;2022-07-22T14:31:11;29.50;60.70
3648;DHT22;1840;48.892;15.312;2022-07-22T14:33:44;29.60;60.40
3648;DHT22;1840;48.892;15.312;2022-07-22T14:36:13;29.90;61.80
3648;DHT22;1840;48.892;15.312;2022-07-22T14:38:41;30.00;59.20
3648;DHT22;1840;48.892;15.312;2022-07-22T14:41:11;29.80;59.70
3648;DHT22;1840;48.892;15.312;2022-07-22T14:43:39;29.50;59.30
3648;DHT22;1840;48.892;15.312;2022-07-22T14:46:09;29.30;60.30
3648;DHT22;1840;48.892;15.312;2022-07-22T14:48:38;29.50;60.90
3648;DHT22;1840;48.892;15.312;2022-07-22T14:51:08;29.80;61.90
3648;DHT22;1840;48.892;15.312;2022-07-22T14:53:36;30.00;62.20
3648;DHT22;1840;48.892;15.312;2022-07-22T14:56:04;30.10;59.50
3648;DHT22;1840;48.892;15.312;2022-07-22T14:58:34;30.20;62.10
3648;DHT22;1840;48.892;15.312;2022-07-22T15:01:02;30.20;60.50
3648;DHT22;1840;48.892;15.312;2022-07-22T15:03:30;30.30;61.50
3648;DHT22;1840;48.892;15.312;2022-07-22T15:05:58;30.30;62.00
3648;DHT22;1840;48.892;15.312;2022-07-22T15:08:26;30.40;62.50
3648;DHT22;1840;48.892;15.312;2022-07-22T15:10:54;30.20;62.40
3648;DHT22;1840;48.892;15.312;2022-07-22T15:13:22;30.30;61.50
3648;DHT22;1840;48.892;15.312;2022-07-22T15:15:55;30.30;61.70
3648;DHT22;1840;48.892;15.312;2022-07-22T15:18:23;30.40;61.80
3648;DHT22;1840;48.892;15.312;2022-07-22T15:20:52;30.50;60.70
3648;DHT22;1840;48.892;15.312;2022-07-22T15:23:23;30.60;60.40
3648;DHT22;1840;48.892;15.312;2022-07-22T15:25:52;30.50;60.50
3648;DHT22;1840;48.892;15.312;2022-07-22T15:28:21;30.60;59.80
3648;DHT22;1840;48.892;15.312;2022-07-22T15:31:06;30.30;59.30
3648;DHT22;1840;48.892;15.312;2022-07-22T15:33:34;30.10;59.80
3648;DHT22;1840;48.892;15.312;2022-07-22T15:36:06;30.00;60.50
3648;DHT22;1840;48.892;15.312;2022-07-22T15:38:36;29.90;60.40
3648;DHT22;1840;48.892;15.312;2022-07-22T15:41:05;29.80;61.00
3648;DHT22;1840;48.892;15.312;2022-07-22T15:43:33;29.90;61.20
3648;DHT22;1840;48.892;15.312;2022-07-22T15:46:01;30.00;63.90
3648;DHT22;1840;48.892;15.312;2022-07-22T15:48:31;30.00;62.40
3648;DHT22;1840;48.892;15.312;2022-07-22T15:50:59;30.20;60.80
3648;DHT22;1840;48.892;15.312;2022-07-22T15:53:29;30.10;62.60
3648;DHT22;1840;48.892;15.312;2022-07-22T15:55:58;30.20;62.10
3648;DHT22;1840;48.892;15.312;2022-07-22T15:58:27;30.10;61.70
3648;DHT22;1840;48.892;15.312;2022-07-22T16:01:32;30.30;62.60